createdAt,value
2018-12-20T00:02:16.325Z,6.46
2018-12-20T00:04:45.618Z,6.48
2018-12-20T00:07:14.435Z,6.50
2018-12-20T00:09:43.219Z,6.54
2018-12-20T00:12:12.030Z,6.57
2018-12-20T00:14:40.841Z,6.61
2018-12-20T00:17:15.002Z,6.64
2018-12-20T00:19:43.773Z,6.66
2018-12-20T00:22:13.007Z,6.69
2018-12-20T00:24:41.780Z,6.71
2018-12-20T00:27:11.767Z,6.75
2018-12-20T00:29:40.767Z,6.76
2018-12-20T00:32:09.648Z,6.80
2018-12-20T00:34:38.376Z,6.84
2018-12-20T00:37:07.156Z,6.87
2018-12-20T00:39:35.925Z,6.89
2018-12-20T00:42:04.746Z,6.90
2018-12-20T00:44:37.342Z,6.90
2018-12-20T00:47:03.651Z,6.89
2018-12-20T00:49:32.327Z,6.89
2018-12-20T00:52:01.170Z,6.90
2018-12-20T00:54:30.011Z,6.87
2018-12-20T00:56:58.823Z,6.87
2018-12-20T00:59:27.518Z,6.89
2018-12-20T01:01:56.331Z,6.89
2018-12-20T01:04:25.148Z,6.91
2018-12-20T01:06:54.744Z,6.91
2018-12-20T01:09:23.602Z,6.91
2018-12-20T01:11:52.374Z,6.91
2018-12-20T01:14:21.158Z,6.90
2018-12-20T01:16:50.552Z,6.90
2018-12-20T01:19:20.231Z,6.92
2018-12-20T01:21:48.875Z,6.96
2018-12-20T01:24:17.663Z,6.97
2018-12-20T01:26:46.455Z,6.99
2018-12-20T01:29:15.342Z,7.00
2018-12-20T01:31:44.136Z,6.99
2018-12-20T01:34:12.871Z,6.99
2018-12-20T01:36:41.747Z,7.03
2018-12-20T01:39:10.486Z,7.02
2018-12-20T01:41:39.298Z,7.05
2018-12-20T01:44:08.058Z,7.06
2018-12-20T01:46:36.906Z,7.10
2018-12-20T01:49:05.659Z,7.12
2018-12-20T01:51:34.570Z,7.14
2018-12-20T01:54:03.527Z,7.18
2018-12-20T01:56:32.432Z,7.19
2018-12-20T01:59:01.155Z,7.21
2018-12-20T02:01:29.980Z,7.24
2018-12-20T02:03:58.805Z,7.25
2018-12-20T02:06:27.536Z,7.29
2018-12-20T02:08:56.913Z,7.30
2018-12-20T02:11:25.829Z,7.32
2018-12-20T02:13:54.493Z,7.35
2018-12-20T02:16:23.296Z,7.37
2018-12-20T02:18:53.380Z,7.36
2018-12-20T02:21:22.026Z,7.35
2018-12-20T02:23:51.040Z,7.36
2018-12-20T02:26:19.823Z,7.36
2018-12-20T02:28:49.026Z,7.37
2018-12-20T02:31:18.610Z,7.39
2018-12-20T02:33:47.386Z,7.42
2018-12-20T02:36:16.180Z,7.43
2018-12-20T02:38:44.987Z,7.43
2018-12-20T02:41:13.775Z,7.46
2018-12-20T02:43:42.830Z,7.47
2018-12-20T02:46:11.502Z,7.49
2018-12-20T02:48:40.265Z,7.53
2018-12-20T02:51:08.990Z,7.57
2018-12-20T02:53:37.752Z,7.60
2018-12-20T02:56:06.615Z,7.63
2018-12-20T02:58:35.403Z,7.65
2018-12-20T03:01:05.140Z,7.66
2018-12-20T03:03:34.702Z,7.70
2018-12-20T03:06:03.469Z,7.71
2018-12-20T03:08:32.434Z,7.72
2018-12-20T03:11:01.263Z,7.73
2018-12-20T03:13:30.198Z,7.72
2018-12-20T03:15:59.344Z,7.75
2018-12-20T03:18:28.103Z,7.75
2018-12-20T03:20:56.863Z,7.77
2018-12-20T03:23:25.647Z,7.79
2018-12-20T03:25:54.744Z,7.79
2018-12-20T03:28:24.043Z,7.91
2018-12-20T03:30:53.716Z,7.86
2018-12-20T03:33:22.313Z,7.83
2018-12-20T03:35:51.122Z,7.83
2018-12-20T03:38:19.902Z,7.83
2018-12-20T03:40:48.710Z,7.84
2018-12-20T03:43:17.492Z,7.80
2018-12-20T03:45:46.273Z,7.80
2018-12-20T03:48:15.214Z,7.81
2018-12-20T03:50:44.130Z,7.82
2018-12-20T03:53:12.752Z,7.80
2018-12-20T03:55:41.547Z,7.76
2018-12-20T03:58:10.538Z,7.75
2018-12-20T04:00:40.891Z,7.75
2018-12-20T04:03:09.856Z,7.71
2018-12-20T04:05:38.610Z,7.65
2018-12-20T04:08:07.485Z,7.59
2018-12-20T04:10:36.054Z,7.51
2018-12-20T04:13:04.855Z,7.45
2018-12-20T04:15:37.739Z,7.37
2018-12-20T04:18:02.635Z,7.30
2018-12-20T04:20:31.841Z,7.25
2018-12-20T04:23:00.631Z,7.24
2018-12-20T04:25:29.460Z,7.24
2018-12-20T04:27:58.190Z,7.23
2018-12-20T04:30:27.133Z,7.20
2018-12-20T04:32:56.299Z,7.19
2018-12-20T04:35:24.803Z,7.18
2018-12-20T04:37:54.131Z,7.13
2018-12-20T04:40:22.958Z,7.11
2018-12-20T04:42:51.766Z,7.10
2018-12-20T04:45:20.668Z,7.10
2018-12-20T04:47:50.229Z,7.09
2018-12-20T04:50:19.702Z,7.09
2018-12-20T04:52:48.485Z,7.06
2018-12-20T04:55:17.392Z,7.06
2018-12-20T04:57:47.579Z,7.04
2018-12-20T05:00:17.335Z,7.02
2018-12-20T05:02:46.091Z,7.02
2018-12-20T05:05:15.035Z,7.02
2018-12-20T05:07:43.819Z,7.01
2018-12-20T05:10:12.679Z,7.00
2018-12-20T05:12:41.347Z,6.99
2018-12-20T05:15:10.056Z,6.99
2018-12-20T05:17:38.811Z,7.00
2018-12-20T05:20:07.610Z,7.02
2018-12-20T05:22:36.505Z,7.04
2018-12-20T05:25:05.725Z,7.04
2018-12-20T05:27:34.324Z,7.06
2018-12-20T05:30:03.928Z,7.07
2018-12-20T05:32:32.661Z,7.07
2018-12-20T05:35:01.712Z,7.08
2018-12-20T05:37:30.311Z,7.06
2018-12-20T05:40:00.835Z,7.09
2018-12-20T05:42:29.528Z,7.12
2018-12-20T05:44:58.255Z,7.16
2018-12-20T05:47:27.566Z,7.21
2018-12-20T05:49:56.359Z,7.25
2018-12-20T05:52:25.185Z,7.30
2018-12-20T05:54:53.963Z,7.35
2018-12-20T05:57:22.804Z,7.40
2018-12-20T05:59:51.653Z,7.43
2018-12-20T06:02:20.439Z,7.47
2018-12-20T06:04:50.323Z,7.51
2018-12-20T06:07:19.267Z,7.52
2018-12-20T06:09:48.680Z,7.54
2018-12-20T06:12:17.581Z,7.56
2018-12-20T06:14:46.672Z,7.60
2018-12-20T06:17:15.443Z,7.62
2018-12-20T06:19:44.235Z,7.63
2018-12-20T06:22:14.021Z,7.66
2018-12-20T06:24:43.215Z,7.67
2018-12-20T06:27:12.002Z,7.70
2018-12-20T06:29:41.452Z,7.71
2018-12-20T06:32:10.253Z,7.74
2018-12-20T06:34:39.035Z,7.74
2018-12-20T06:37:08.336Z,7.77
2018-12-20T06:39:37.170Z,7.78
2018-12-20T06:42:06.530Z,7.80
2018-12-20T06:44:35.847Z,7.81
2018-12-20T06:47:05.105Z,7.81
2018-12-20T06:49:33.904Z,7.83
2018-12-20T06:52:02.794Z,7.83
2018-12-20T06:54:31.582Z,7.83
2018-12-20T06:57:00.368Z,7.83
2018-12-20T06:59:29.208Z,7.85
2018-12-20T07:01:59.174Z,7.85
2018-12-20T07:04:28.983Z,7.85
2018-12-20T07:06:57.813Z,7.88
2018-12-20T07:09:26.611Z,7.89
2018-12-20T07:11:55.404Z,7.91
2018-12-20T07:14:24.202Z,7.88
2018-12-20T07:16:52.996Z,7.88
2018-12-20T07:19:21.786Z,7.89
2018-12-20T07:21:51.539Z,7.91
2018-12-20T07:24:20.719Z,7.91
2018-12-20T07:26:49.487Z,7.91
2018-12-20T07:29:18.315Z,7.91
2018-12-20T07:31:47.098Z,7.91
2018-12-20T07:34:17.437Z,7.93
2018-12-20T07:36:46.283Z,7.93
2018-12-20T07:39:15.081Z,7.95
2018-12-20T07:41:43.975Z,7.96
2018-12-20T07:44:12.757Z,7.96
2018-12-20T07:46:41.559Z,7.97
2018-12-20T07:49:10.356Z,7.98
2018-12-20T07:51:39.221Z,8.00
2018-12-20T07:54:08.026Z,8.00
2018-12-20T07:56:36.803Z,8.01
2018-12-20T07:59:05.591Z,8.02
2018-12-20T08:01:34.379Z,8.02
2018-12-20T08:04:03.569Z,8.04
2018-12-20T08:06:32.047Z,8.05
2018-12-20T08:09:00.839Z,8.05
2018-12-20T08:11:29.654Z,8.07
2018-12-20T08:13:58.473Z,8.08
2018-12-20T08:16:28.694Z,8.07
2018-12-20T08:18:58.170Z,8.09
2018-12-20T08:21:26.943Z,8.10
2018-12-20T08:23:55.781Z,8.12
2018-12-20T08:26:24.612Z,8.14
2018-12-20T08:28:53.397Z,8.14
2018-12-20T08:31:22.182Z,8.15
2018-12-20T08:33:50.966Z,8.17
2018-12-20T08:36:19.742Z,8.18
2018-12-20T08:38:48.598Z,8.20
2018-12-20T08:41:17.395Z,8.23
2018-12-20T08:43:46.199Z,8.27
2018-12-20T08:46:14.991Z,8.26
2018-12-20T08:48:43.802Z,8.29
2018-12-20T08:51:12.580Z,8.33
2018-12-20T08:53:41.372Z,8.33
2018-12-20T08:56:10.164Z,8.35
2018-12-20T08:58:38.951Z,8.35
2018-12-20T09:01:07.762Z,8.38
2018-12-20T09:03:36.735Z,8.40
2018-12-20T09:06:05.599Z,8.40
2018-12-20T09:08:34.397Z,8.39
2018-12-20T09:11:03.179Z,8.42
2018-12-20T09:13:32.010Z,8.47
2018-12-20T09:16:00.799Z,8.51
2018-12-20T09:18:29.600Z,8.55
2018-12-20T09:20:58.387Z,8.59
2018-12-20T09:23:27.250Z,8.62
2018-12-20T09:25:56.055Z,8.63
2018-12-20T09:28:24.964Z,8.65
2018-12-20T09:30:53.802Z,8.67
2018-12-20T09:33:22.675Z,8.75
2018-12-20T09:35:51.475Z,8.84
2018-12-20T09:38:20.276Z,8.92
2018-12-20T09:40:49.062Z,9.00
2018-12-20T09:43:17.861Z,9.04
2018-12-20T09:45:46.639Z,9.05
2018-12-20T09:48:15.433Z,9.04
2018-12-20T09:50:44.220Z,9.01
2018-12-20T09:53:13.015Z,9.00
2018-12-20T09:55:41.813Z,9.01
2018-12-20T09:58:11.570Z,9.02
2018-12-20T10:00:40.342Z,9.03
2018-12-20T10:03:09.144Z,9.06
2018-12-20T10:05:37.936Z,9.07
2018-12-20T10:08:06.807Z,9.04
2018-12-20T10:10:35.651Z,9.08
2018-12-20T10:13:04.690Z,9.14
2018-12-20T10:15:37.140Z,9.17
2018-12-20T10:18:04.108Z,9.18
2018-12-20T10:20:32.897Z,9.21
2018-12-20T10:23:01.676Z,9.21
2018-12-20T10:25:31.011Z,9.22
2018-12-20T10:27:59.815Z,9.25
2018-12-20T10:30:28.608Z,9.27
2018-12-20T10:32:57.439Z,9.23
2018-12-20T10:35:26.225Z,9.21
2018-12-20T10:37:55.019Z,9.22
2018-12-20T10:40:23.826Z,9.23
2018-12-20T10:42:52.666Z,9.22
2018-12-20T10:45:21.463Z,9.21
2018-12-20T10:47:50.231Z,9.20
2018-12-20T10:50:19.055Z,9.18
2018-12-20T10:52:47.857Z,9.21
2018-12-20T10:55:16.654Z,9.21
2018-12-20T10:57:48.582Z,9.22
2018-12-20T11:00:17.367Z,9.19
2018-12-20T11:02:51.609Z,9.20
2018-12-20T11:05:23.481Z,9.18
2018-12-20T11:07:56.872Z,9.19
2018-12-20T11:10:27.866Z,9.17
2018-12-20T11:12:57.051Z,9.16
2018-12-20T11:15:25.867Z,9.13
2018-12-20T11:17:54.664Z,9.14
2018-12-20T11:20:24.336Z,9.12
2018-12-20T11:22:53.879Z,9.13
2018-12-20T11:25:22.738Z,9.12
2018-12-20T11:27:51.824Z,9.16
2018-12-20T11:30:20.603Z,9.21
2018-12-20T11:32:49.410Z,9.26
2018-12-20T11:35:18.213Z,9.29
2018-12-20T11:37:47.116Z,9.33
2018-12-20T11:40:15.967Z,9.40
2018-12-20T11:42:44.786Z,9.43
2018-12-20T11:45:13.593Z,9.46
2018-12-20T11:47:46.085Z,9.47
2018-12-20T11:50:11.178Z,9.47
2018-12-20T11:52:42.510Z,9.46
2018-12-20T11:55:09.635Z,9.46
2018-12-20T11:57:38.436Z,9.47
2018-12-20T12:00:09.450Z,9.44
2018-12-20T12:02:38.331Z,9.44
2018-12-20T12:05:07.103Z,9.42
2018-12-20T12:07:36.503Z,9.41
2018-12-20T12:10:06.340Z,9.38
2018-12-20T12:12:35.623Z,9.33
2018-12-20T12:15:04.710Z,9.32
2018-12-20T12:17:33.515Z,9.34
2018-12-20T12:20:02.314Z,9.37
2018-12-20T12:22:31.162Z,9.35
2018-12-20T12:25:00.507Z,9.35
2018-12-20T12:27:29.339Z,9.31
2018-12-20T12:29:59.351Z,9.28
2018-12-20T12:32:28.134Z,9.25
2018-12-20T12:34:56.935Z,9.25
2018-12-20T12:37:25.754Z,9.24
2018-12-20T12:39:56.840Z,9.24
2018-12-20T12:42:25.638Z,9.21
2018-12-20T12:44:54.433Z,9.19
2018-12-20T12:47:28.573Z,9.20
2018-12-20T12:49:57.368Z,9.21
2018-12-20T12:52:26.149Z,9.21
2018-12-20T12:54:54.935Z,9.20
2018-12-20T12:57:23.747Z,9.21
2018-12-20T12:59:52.632Z,9.19
2018-12-20T13:02:21.703Z,9.18
2018-12-20T13:04:50.509Z,9.14
2018-12-20T13:07:19.295Z,9.14
2018-12-20T13:09:48.094Z,9.16
2018-12-20T13:12:18.010Z,9.15
2018-12-20T13:14:47.838Z,9.15
2018-12-20T13:17:16.648Z,9.13
2018-12-20T13:19:45.473Z,9.08
2018-12-20T13:22:14.315Z,9.08
2018-12-20T13:24:43.583Z,9.08
2018-12-20T13:27:12.397Z,9.11
2018-12-20T13:29:41.184Z,9.08
2018-12-20T13:32:09.980Z,9.07
2018-12-20T13:34:38.832Z,9.04
2018-12-20T13:37:15.628Z,9.03
2018-12-20T13:39:36.595Z,9.06
2018-12-20T13:42:06.080Z,9.10
2018-12-20T13:44:34.918Z,9.13
2018-12-20T13:47:04.763Z,9.15
2018-12-20T13:49:33.628Z,9.14
2018-12-20T13:52:02.479Z,9.15
2018-12-20T13:54:31.339Z,9.14
2018-12-20T13:57:00.164Z,9.12
2018-12-20T13:59:28.947Z,9.09
2018-12-20T14:01:57.738Z,9.08
2018-12-20T14:04:26.647Z,9.08
2018-12-20T14:06:55.466Z,9.08
2018-12-20T14:09:24.272Z,9.06
2018-12-20T14:11:53.368Z,9.04
2018-12-20T14:14:23.903Z,9.03
2018-12-20T14:16:52.672Z,9.02
2018-12-20T14:19:22.066Z,9.01
2018-12-20T14:21:50.860Z,9.03
2018-12-20T14:24:22.443Z,9.02
2018-12-20T14:26:51.239Z,9.01
2018-12-20T14:29:20.833Z,9.02
2018-12-20T14:31:50.144Z,9.00
2018-12-20T14:34:20.036Z,8.99
2018-12-20T14:36:52.742Z,8.98
2018-12-20T14:39:21.557Z,8.97
2018-12-20T14:41:50.354Z,8.95
2018-12-20T14:44:19.136Z,8.94
2018-12-20T14:46:47.925Z,8.95
2018-12-20T14:49:16.799Z,8.93
2018-12-20T14:51:45.597Z,8.91
2018-12-20T14:54:14.665Z,8.91
2018-12-20T14:56:43.472Z,8.92
2018-12-20T14:59:13.895Z,8.92
2018-12-20T15:01:43.180Z,8.91
2018-12-20T15:04:11.988Z,8.87
2018-12-20T15:06:41.591Z,8.85
2018-12-20T15:09:10.367Z,8.85
2018-12-20T15:11:39.172Z,8.86
2018-12-20T15:14:07.959Z,8.86
2018-12-20T15:16:36.760Z,8.85
2018-12-20T15:19:05.556Z,8.85
2018-12-20T15:21:35.063Z,8.84
2018-12-20T15:24:04.869Z,8.82
2018-12-20T15:26:33.968Z,8.82
2018-12-20T15:29:02.764Z,8.79
2018-12-20T15:31:31.620Z,8.77
2018-12-20T15:34:00.415Z,8.76
2018-12-20T15:36:29.820Z,8.75
2018-12-20T15:38:59.417Z,8.74
2018-12-20T15:41:28.212Z,8.71
2018-12-20T15:43:57.046Z,8.71
2018-12-20T15:46:26.482Z,8.69
2018-12-20T15:48:59.405Z,8.69
2018-12-20T15:51:28.212Z,8.70
2018-12-20T15:53:57.026Z,8.68
2018-12-20T15:56:25.838Z,8.66
2018-12-20T15:58:54.619Z,8.66
2018-12-20T16:01:23.680Z,8.66
2018-12-20T16:03:55.078Z,8.65
2018-12-20T16:06:23.853Z,8.65
2018-12-20T16:08:52.655Z,8.67
2018-12-20T16:11:21.562Z,8.67
2018-12-20T16:13:57.053Z,8.65
2018-12-20T16:16:26.758Z,8.78
2018-12-20T16:18:55.755Z,8.68
2018-12-20T16:21:24.516Z,8.63
2018-12-20T16:23:53.352Z,8.61
2018-12-20T16:26:23.084Z,8.60
2018-12-20T16:28:51.884Z,8.61
2018-12-20T16:31:20.731Z,8.62
2018-12-20T16:33:49.522Z,8.64
2018-12-20T16:36:18.343Z,8.65
2018-12-20T16:38:47.991Z,8.66
2018-12-20T16:41:16.791Z,8.65
2018-12-20T16:43:45.596Z,8.66
2018-12-20T16:46:14.410Z,8.65
2018-12-20T16:48:43.205Z,8.65
2018-12-20T16:51:12.757Z,8.63
2018-12-20T16:53:42.105Z,8.60
2018-12-20T16:56:12.726Z,8.59
2018-12-20T16:58:41.503Z,8.59
2018-12-20T17:01:10.340Z,8.60
2018-12-20T17:03:39.154Z,8.60
2018-12-20T17:06:07.946Z,8.60
2018-12-20T17:08:36.742Z,8.59
2018-12-20T17:11:05.547Z,8.62
2018-12-20T17:13:34.462Z,8.63
2018-12-20T17:16:03.396Z,8.62
2018-12-20T17:18:32.256Z,8.64
2018-12-20T17:21:01.043Z,8.66
2018-12-20T17:23:35.687Z,8.66
2018-12-20T17:26:04.023Z,8.65
2018-12-20T17:28:32.833Z,8.66
2018-12-20T17:31:01.626Z,8.66
2018-12-20T17:33:30.663Z,8.65
2018-12-20T17:35:59.432Z,8.67
2018-12-20T17:38:28.280Z,8.66
2018-12-20T17:40:57.119Z,8.70
2018-12-20T17:43:25.932Z,8.69
2018-12-20T17:45:54.764Z,8.67
2018-12-20T17:48:28.990Z,8.68
2018-12-20T17:50:54.340Z,8.69
2018-12-20T17:53:24.367Z,8.69
2018-12-20T17:55:53.152Z,8.68
2018-12-20T17:58:22.627Z,8.69
2018-12-20T18:00:52.354Z,8.65
2018-12-20T18:03:24.432Z,8.63
2018-12-20T18:05:54.344Z,8.63
2018-12-20T18:08:23.155Z,8.63
2018-12-20T18:10:53.131Z,8.62
2018-12-20T18:13:21.940Z,8.60
2018-12-20T18:15:50.727Z,8.55
2018-12-20T18:18:20.973Z,8.55
2018-12-20T18:20:51.071Z,8.53
2018-12-20T18:23:20.474Z,8.51
2018-12-20T18:25:49.272Z,8.51
2018-12-20T18:28:18.087Z,8.51
2018-12-20T18:30:46.880Z,8.54
2018-12-20T18:33:15.678Z,8.55
2018-12-20T18:35:44.465Z,8.57
2018-12-20T18:38:13.348Z,8.55
2018-12-20T18:40:42.226Z,8.55
2018-12-20T18:43:10.980Z,8.55
2018-12-20T18:45:39.883Z,8.54
2018-12-20T18:48:08.660Z,8.54
2018-12-20T18:50:37.564Z,8.54
2018-12-20T18:53:06.350Z,8.53
2018-12-20T18:55:35.148Z,8.54
2018-12-20T18:58:03.939Z,8.57
2018-12-20T19:00:35.996Z,8.60
2018-12-20T19:03:03.161Z,8.72
2018-12-20T19:05:32.075Z,8.66
2018-12-20T19:08:00.862Z,8.67
2018-12-20T19:10:30.980Z,8.70
2018-12-20T19:13:00.171Z,8.72
2018-12-20T19:15:29.051Z,8.74
2018-12-20T19:17:57.840Z,8.75
2018-12-20T19:20:27.826Z,8.76
2018-12-20T19:22:56.622Z,8.77
2018-12-20T19:25:25.488Z,8.80
2018-12-20T19:27:54.952Z,8.81
2018-12-20T19:30:23.749Z,8.81
2018-12-20T19:32:52.540Z,8.82
2018-12-20T19:35:21.351Z,8.82
2018-12-20T19:37:50.155Z,8.83
2018-12-20T19:40:19.078Z,8.85
2018-12-20T19:42:48.567Z,8.88
2018-12-20T19:45:18.271Z,8.90
2018-12-20T19:47:47.944Z,8.91
2018-12-20T19:50:17.557Z,8.91
2018-12-20T19:52:47.070Z,8.93
2018-12-20T19:55:15.892Z,8.95
2018-12-20T19:57:44.846Z,8.93
2018-12-20T20:00:16.719Z,8.96
2018-12-20T20:02:45.511Z,8.96
2018-12-20T20:05:14.327Z,8.95
2018-12-20T20:07:43.127Z,8.95
2018-12-20T20:10:14.164Z,8.97
2018-12-20T20:12:42.988Z,8.97
2018-12-20T20:15:16.678Z,8.96
2018-12-20T20:17:43.349Z,8.98
2018-12-20T20:20:14.182Z,8.99
2018-12-20T20:22:41.703Z,9.00
2018-12-20T20:25:10.499Z,8.96
2018-12-20T20:27:39.300Z,9.00
2018-12-20T20:30:13.464Z,9.00
2018-12-20T20:32:40.397Z,9.01
2018-12-20T20:35:09.222Z,9.02
2018-12-20T20:37:38.013Z,9.02
2018-12-20T20:40:09.424Z,9.02
2018-12-20T20:42:38.215Z,9.03
2018-12-20T20:45:07.271Z,9.01
2018-12-20T20:47:36.073Z,9.01
2018-12-20T20:50:06.274Z,9.01
2018-12-20T20:52:35.083Z,9.01
2018-12-20T20:55:05.750Z,9.01
2018-12-20T20:57:34.124Z,9.01
2018-12-20T21:00:03.099Z,9.02
2018-12-20T21:02:31.976Z,9.02
2018-12-20T21:05:00.782Z,9.02
2018-12-20T21:07:29.564Z,9.02
2018-12-20T21:09:58.367Z,9.01
2018-12-20T21:12:27.156Z,9.00
2018-12-20T21:14:56.487Z,9.00
2018-12-20T21:17:25.270Z,8.97
2018-12-20T21:19:54.166Z,8.96
2018-12-20T21:22:23.011Z,8.93
2018-12-20T21:24:51.803Z,8.92
2018-12-20T21:27:20.595Z,8.92
2018-12-20T21:29:49.408Z,8.92
2018-12-20T21:32:18.241Z,8.92
2018-12-20T21:34:47.998Z,9.08
2018-12-20T21:37:20.959Z,8.97
2018-12-20T21:39:49.753Z,8.94
2018-12-20T21:42:18.552Z,8.92
2018-12-20T21:44:47.355Z,8.92
2018-12-20T21:47:17.336Z,8.92
2018-12-20T21:49:46.090Z,9.03
2018-12-20T21:52:14.919Z,8.97
2018-12-20T21:54:43.735Z,8.94
2018-12-20T21:57:13.035Z,8.93
2018-12-20T21:59:42.398Z,8.93
2018-12-20T22:02:11.185Z,8.93
2018-12-20T22:04:40.039Z,8.91
2018-12-20T22:07:09.499Z,8.89
2018-12-20T22:09:38.287Z,8.88
2018-12-20T22:12:07.071Z,8.87
2018-12-20T22:14:35.880Z,8.84
2018-12-20T22:17:04.648Z,8.83
2018-12-20T22:19:33.452Z,8.80
2018-12-20T22:22:02.262Z,8.74
2018-12-20T22:24:32.181Z,8.73
2018-12-20T22:27:00.962Z,8.72
2018-12-20T22:29:30.800Z,8.71
2018-12-20T22:32:00.636Z,8.70
2018-12-20T22:34:29.429Z,8.71
2018-12-20T22:36:58.249Z,8.70
2018-12-20T22:39:27.031Z,8.69
2018-12-20T22:41:55.838Z,8.69
2018-12-20T22:44:24.624Z,8.69
2018-12-20T22:46:53.416Z,8.69
2018-12-20T22:49:22.212Z,8.64
2018-12-20T22:51:50.996Z,8.69
2018-12-20T22:54:21.603Z,8.69
2018-12-20T22:56:51.219Z,8.69
2018-12-20T22:59:20.627Z,8.69
2018-12-20T23:01:49.430Z,8.71
2018-12-20T23:04:18.251Z,8.73
2018-12-20T23:06:47.991Z,8.74
2018-12-20T23:09:16.853Z,8.74
2018-12-20T23:11:46.601Z,8.72
2018-12-20T23:14:15.376Z,8.69
2018-12-20T23:16:44.166Z,8.72
2018-12-20T23:19:13.071Z,8.72
2018-12-20T23:21:42.035Z,8.71
2018-12-20T23:24:10.927Z,8.71
2018-12-20T23:26:39.725Z,8.70
2018-12-20T23:29:08.555Z,8.70
2018-12-20T23:31:38.003Z,8.70
2018-12-20T23:34:06.820Z,8.68
2018-12-20T23:36:35.610Z,8.66
2018-12-20T23:39:05.856Z,8.66
2018-12-20T23:41:35.909Z,8.64
2018-12-20T23:44:04.699Z,8.64
2018-12-20T23:46:33.491Z,8.64
2018-12-20T23:49:03.199Z,8.61
2018-12-20T23:51:32.252Z,8.61
2018-12-20T23:54:01.053Z,8.61
2018-12-20T23:56:29.889Z,8.59
2018-12-20T23:58:58.679Z,8.59
